Angel Fire, NM

9:15 AM MST on December 10, 2019 (GMT -0700)
Angel Fire

Weather History for KAXX - October, 2019

Change the Weather History Date:

Monday, October 14, 2019

  Actual Average (WUND) Record (WUND)
Temperature  
Mean Temperature 38 °F -  
Max Temperature 60 °F - - (-1)
Min Temperature 16 °F - - (-1)
Degree Days  
Heating Degree Days 27    
Moisture  
Dew Point 17 °F    
Average Humidity 44    
Maximum Humidity 85    
Minimum Humidity 19    
Precipitation  
Precipitation 0.00 in - - ()
Sea Level Pressure  
Sea Level Pressure 30.19 in    
Wind  
Wind Speed 7 mph (West)    
Max Wind Speed 28 mph    
Max Gust Speed 37 mph    
Visibility 10 miles    
Events      
Averages and records for this station are not official NWS values.
T = Trace of Precipitation, MM = Missing Value Source: NWS Daily Summary

Daily Weather History Graph

Daily Weather History Graph

Search for Another Location

Airport or City:

Astronomy

Oct. 14, 2019 Rise Set
Actual Time 7:07 AM MDT 6:26 PM MDT
Civil Twilight 6:41 AM MDT 6:52 PM MDT
Nautical Twilight 6:11 AM MDT 7:22 PM MDT
Astronomical Twilight 5:41 AM MDT 7:52 PM MDT
Moon 7:18 PM MDT (10/14) 7:41 AM MDT (10/14)
Length of Visible Light 12h 11m
Length of Day
11h 19m
Full, 99% of the Moon is Illuminated
Oct 14
Full
Oct 21
Last Quarter
Oct 27
New
Nov 4
First Quarter
Nov 12
Full

Hourly Weather History & Observations

Time (MDT) Temp. Windchill Dew Point Humidity Pressure Visibility Wind Dir Wind Speed Gust Speed Precip Events Conditions
12:15 AM 21.9 °F 17.2 °F 12.6 °F 67% 30.22 in 10.0 mi SSE 3.5 mph - N/A   Clear
12:35 AM 18.7 °F - 11.7 °F 74% 30.22 in 10.0 mi Calm Calm - N/A   Clear
12:55 AM 21.4 °F 16.6 °F 12.6 °F 69% 30.22 in 10.0 mi South 3.5 mph - N/A   Clear
1:15 AM 18.9 °F - 12.0 °F 75% 30.22 in 10.0 mi Calm Calm - N/A   Clear
1:35 AM 22.6 °F 18.0 °F 13.3 °F 67% 30.22 in 10.0 mi South 3.5 mph - N/A   Clear
1:55 AM 18.9 °F 12.1 °F 11.5 °F 73% 30.22 in 10.0 mi SSE 4.6 mph - N/A   Clear
2:15 AM 19.2 °F - 12.6 °F 75% 30.22 in 10.0 mi Calm Calm - N/A   Clear
2:35 AM 19.6 °F - 12.6 °F 74% 30.21 in 10.0 mi Calm Calm - N/A   Clear
2:55 AM 20.1 °F - 13.5 °F 75% 30.21 in 10.0 mi Calm Calm - N/A   Clear
3:15 AM 20.1 °F - 13.6 °F 76% 30.21 in 10.0 mi Calm Calm - N/A   Clear
3:35 AM 18.5 °F - 12.9 °F 79% 30.20 in 10.0 mi Calm Calm - N/A   Clear
3:55 AM 17.1 °F - 11.8 °F 80% 30.20 in 10.0 mi Calm Calm - N/A   Clear
4:15 AM 16.9 °F - 12.2 °F 82% 30.20 in 10.0 mi Calm Calm - N/A   Clear
4:35 AM 20.3 °F 13.8 °F 14.2 °F 77% 30.20 in 10.0 mi SSE 4.6 mph - N/A   Clear
4:55 AM 17.6 °F - 13.3 °F 83% 30.20 in 10.0 mi Calm Calm - N/A   Clear
5:15 AM 19.2 °F - 13.6 °F 79% 30.20 in 10.0 mi Calm Calm - N/A   Clear
5:35 AM 18.1 °F 12.9 °F 13.1 °F 81% 30.20 in 10.0 mi WSW 3.5 mph - N/A   Clear
5:55 AM 19.0 °F - 13.6 °F 79% 30.20 in 10.0 mi Calm Calm - N/A   Clear
6:15 AM 20.5 °F - 16.2 °F 83% 30.21 in 10.0 mi Calm Calm - N/A   Clear
6:35 AM 19.9 °F 14.9 °F 15.4 °F 83% 30.21 in 10.0 mi WSW 3.5 mph - N/A   Clear
6:55 AM 20.7 °F - 15.3 °F 80% 30.21 in 10.0 mi Calm Calm - N/A   Clear
7:15 AM 17.8 °F - 13.8 °F 84% 30.21 in 10.0 mi Calm Calm - N/A   Clear
7:35 AM 21.0 °F 16.2 °F 17.2 °F 85% 30.21 in 10.0 mi SE 3.5 mph - N/A   Clear
7:55 AM 28.8 °F 22.6 °F 22.8 °F 78% 30.21 in 10.0 mi SSE 5.8 mph - N/A   Clear
8:15 AM 37.9 °F 35.5 °F 26.2 °F 63% 30.22 in 10.0 mi SSE 3.5 mph - N/A   Clear
8:35 AM 45.5 °F - 26.6 °F 48% 30.21 in 10.0 mi Calm Calm - N/A   Clear
8:55 AM 49.3 °F - 23.7 °F 37% 30.22 in 10.0 mi WSW 12.7 mph 21.9 mph N/A   Clear
9:15 AM 50.7 °F - 22.1 °F 33% 30.22 in 10.0 mi West 12.7 mph 21.9 mph N/A   Clear
9:35 AM 52.0 °F - 21.9 °F 31% 30.22 in 10.0 mi West 16.1 mph 25.3 mph N/A   Clear
9:55 AM 53.6 °F - 22.5 °F 30% 30.22 in 10.0 mi West 11.5 mph 26.5 mph N/A   Clear
10:15 AM 55.4 °F - 24.3 °F 30% 30.21 in 10.0 mi West 16.1 mph - N/A   Clear
10:35 AM 55.9 °F - 24.4 °F 30% 30.20 in 10.0 mi West 19.6 mph 29.9 mph N/A   Clear
10:55 AM 56.3 °F - 24.1 °F 29% 30.20 in 10.0 mi West 27.6 mph 35.7 mph N/A   Clear
11:15 AM 56.1 °F - 24.3 °F 29% 30.20 in 10.0 mi West 21.9 mph 36.8 mph N/A   Clear
11:35 AM 56.7 °F - 24.3 °F 29% 30.19 in 10.0 mi WSW 21.9 mph 32.2 mph N/A   Clear
11:55 AM 57.0 °F - 24.3 °F 28% 30.19 in 10.0 mi West 17.3 mph 32.2 mph N/A   Clear
12:15 PM 57.4 °F - 23.0 °F 27% 30.19 in 10.0 mi West 21.9 mph 29.9 mph N/A   Clear
12:35 PM 58.8 °F - 23.9 °F 26% 30.19 in 10.0 mi West 24.2 mph 31.1 mph N/A   Clear
12:55 PM 58.3 °F - 23.0 °F 26% 30.18 in 10.0 mi WNW 19.6 mph 27.6 mph N/A   Clear
1:15 PM 59.2 °F - 21.2 °F 23% 30.16 in 10.0 mi West 23.0 mph 32.2 mph N/A   Clear
1:35 PM 59.4 °F - 20.5 °F 22% 30.16 in 10.0 mi West 20.7 mph 34.5 mph N/A   Clear
1:55 PM 59.9 °F - 19.8 °F 21% 30.15 in 10.0 mi West 19.6 mph 31.1 mph N/A   Clear
2:15 PM 60.1 °F - 18.9 °F 20% 30.15 in 10.0 mi West 20.7 mph 27.6 mph N/A   Clear
2:35 PM 60.8 °F - 19.8 °F 21% 30.15 in 10.0 mi West 19.6 mph 29.9 mph N/A   Clear
2:55 PM 60.4 °F - 19.9 °F 21% 30.14 in 10.0 mi West 15.0 mph 33.4 mph N/A   Clear
3:15 PM 60.3 °F - 18.5 °F 20% 30.14 in 10.0 mi West 13.8 mph 25.3 mph N/A   Clear
4:00 PM 60.6 °F - 18.5 °F 20% 30.14 in 10.0 mi WSW 15.0 mph 20.7 mph N/A   Clear
4:15 PM 60.3 °F - 18.5 °F 20% 30.14 in 10.0 mi West 15.0 mph 25.3 mph N/A   Clear
4:35 PM 60.3 °F - 18.0 °F 19% 30.13 in 10.0 mi WNW 15.0 mph 26.5 mph N/A   Clear
4:55 PM 59.7 °F - 16.9 °F 19% 30.13 in 10.0 mi WSW 15.0 mph 27.6 mph N/A   Clear
5:15 PM 58.6 °F - 16.2 °F 19% 30.14 in 10.0 mi WSW 15.0 mph 28.8 mph N/A   Clear
5:35 PM 57.6 °F - 15.8 °F 19% 30.14 in 10.0 mi West 11.5 mph 24.2 mph N/A   Clear
5:55 PM 56.5 °F - 16.3 °F 21% 30.14 in 10.0 mi West 17.3 mph 23.0 mph N/A   Clear
6:15 PM 54.5 °F - 15.6 °F 22% 30.15 in 10.0 mi West 16.1 mph 25.3 mph N/A   Clear
6:35 PM 53.2 °F - 15.8 °F 23% 30.16 in 10.0 mi West 10.4 mph - N/A   Clear
6:55 PM 51.8 °F - 14.7 °F 23% 30.16 in 10.0 mi West 9.2 mph - N/A   Clear
7:15 PM 50.7 °F - 14.0 °F 23% 30.16 in 10.0 mi West 9.2 mph - N/A   Clear
7:35 PM 49.5 °F - 14.2 °F 24% 30.17 in 10.0 mi WNW 8.1 mph - N/A   Clear
7:55 PM 46.8 °F - 14.4 °F 27% 30.18 in 10.0 mi WNW 10.4 mph - N/A   Clear
8:15 PM 45.0 °F 41.2 °F 14.0 °F 29% 30.18 in 10.0 mi WNW 6.9 mph - N/A   Clear
8:35 PM 46.6 °F - 14.9 °F 28% 30.18 in 10.0 mi WSW 11.5 mph 17.3 mph N/A   Clear
8:55 PM 48.6 °F - 14.7 °F 26% 30.18 in 10.0 mi West 12.7 mph 19.6 mph N/A   Clear
9:15 PM 48.4 °F - 15.3 °F 27% 30.19 in 10.0 mi West 13.8 mph 19.6 mph N/A   Clear
9:35 PM 48.7 °F - 15.8 °F 27% 30.19 in 10.0 mi West 13.8 mph 25.3 mph N/A   Clear
9:55 PM 48.6 °F - 16.5 °F 28% 30.20 in 10.0 mi West 12.7 mph 20.7 mph N/A   Clear
10:15 PM 48.4 °F - 17.2 °F 29% 30.20 in 10.0 mi West 11.5 mph 20.7 mph N/A   Clear
10:35 PM 47.8 °F - 17.4 °F 30% 30.21 in 10.0 mi West 12.7 mph - N/A   Clear
10:55 PM 46.2 °F 41.7 °F 18.1 °F 33% 30.20 in 10.0 mi West 9.2 mph - N/A   Clear
11:15 PM 47.1 °F - 18.3 °F 32% 30.21 in 10.0 mi West 9.2 mph 17.3 mph N/A   Clear
11:35 PM 44.6 °F 41.4 °F 18.0 °F 34% 30.22 in 10.0 mi North 5.8 mph - N/A   Clear
11:55 PM 42.3 °F 39.4 °F 17.8 °F 37% 30.22 in 10.0 mi South 4.6 mph - N/A   Clear